Time;durP1;ratioP1;P1;durP2;ratioP2;P2;SDS_P1;SDS_P2;PMS_P1;PMS_P2;Temp;Humidity;BMP_temperature;BMP_pressure;BME280_temperature;BME280_humidity;BME280_pressure;Samples;Min_cycle;Max_cycle;Signal;HPM_P1;HPM_P2
2022/06/28 00:01:40;;;;;;;11.73;3.13;;;14.30;99.90;;;;;;5054884;28;20021;-68
2022/06/28 00:04:05;;;;;;;10.05;2.83;;;14.30;99.90;;;;;;5054353;28;20017;-68
2022/06/28 00:06:31;;;;;;;13.10;3.13;;;14.30;99.90;;;;;;5054497;28;20409;-68
2022/06/28 00:08:57;;;;;;;13.70;3.22;;;14.30;99.90;;;;;;5054509;28;20083;-68
2022/06/28 00:11:22;;;;;;;17.15;2.97;;;14.20;99.90;;;;;;5054340;28;20064;-68
2022/06/28 00:13:48;;;;;;;14.65;3.55;;;14.20;99.90;;;;;;5054542;28;20051;-67
2022/06/28 00:16:16;;;;;;;8.07;2.67;;;14.20;99.90;;;;;;5053931;28;20070;-67
2022/06/28 00:18:43;;;;;;;13.82;3.22;;;14.20;99.90;;;;;;5052820;28;20149;-68
2022/06/28 00:21:10;;;;;;;14.15;3.38;;;14.20;99.90;;;;;;5054194;28;20064;-67
2022/06/28 00:23:37;;;;;;;14.85;3.40;;;14.20;99.90;;;;;;5053670;28;20017;-66
2022/06/28 00:26:04;;;;;;;17.90;3.35;;;14.20;99.90;;;;;;5053892;28;20028;-68
2022/06/28 00:28:29;;;;;;;17.45;3.80;;;14.20;99.90;;;;;;5054141;28;20491;-68
2022/06/28 00:30:55;;;;;;;12.93;3.40;;;14.20;99.90;;;;;;5053964;28;20025;-68
2022/06/28 00:33:21;;;;;;;12.20;3.03;;;14.10;99.90;;;;;;5054035;28;20124;-68
2022/06/28 00:35:46;;;;;;;13.23;3.65;;;14.10;99.90;;;;;;5054114;28;20028;-67
2022/06/28 00:38:12;;;;;;;16.15;3.38;;;14.10;99.90;;;;;;5053812;28;20016;-67
2022/06/28 00:40:50;;;;;;;12.52;3.17;;;14.10;99.90;;;;;;5053639;28;20107;-68
2022/06/28 00:43:16;;;;;;;11.57;2.90;;;14.10;99.90;;;;;;5053772;28;20048;-67
2022/06/28 00:45:45;;;;;;;18.58;3.40;;;14.10;99.90;;;;;;5053609;28;20112;-67
2022/06/28 00:48:17;;;;;;;14.75;3.63;;;14.10;99.90;;;;;;5053751;28;20017;-68
2022/06/28 00:50:43;;;;;;;11.02;3.42;;;14.10;99.90;;;;;;5053571;28;20023;-67
2022/06/28 00:53:12;;;;;;;7.53;2.92;;;14.00;99.90;;;;;;5053902;28;20104;-67
2022/06/28 00:55:38;;;;;;;12.32;4.07;;;14.00;99.90;;;;;;5053691;28;20391;-66
2022/06/28 00:58:04;;;;;;;13.48;3.80;;;14.00;99.90;;;;;;5053142;28;20020;-66
2022/06/28 01:00:41;;;;;;;15.57;3.28;;;14.00;99.90;;;;;;5053276;28;20484;-69
2022/06/28 01:03:07;;;;;;;14.25;2.97;;;14.00;99.90;;;;;;5053068;28;20465;-69
2022/06/28 01:05:35;;;;;;;12.68;3.03;;;14.00;99.90;;;;;;5053565;28;20434;-66
2022/06/28 01:08:01;;;;;;;14.75;2.85;;;14.00;99.90;;;;;;5053076;28;20021;-67
2022/06/28 01:10:27;;;;;;;11.23;2.95;;;14.00;99.90;;;;;;5052931;28;20017;-68
2022/06/28 01:12:52;;;;;;;16.73;2.95;;;14.00;99.90;;;;;;5053125;28;20032;-67
2022/06/28 01:15:18;;;;;;;11.82;3.05;;;14.00;99.90;;;;;;5053253;28;20070;-67
2022/06/28 01:17:44;;;;;;;14.88;3.00;;;14.00;99.90;;;;;;5052935;28;20021;-67
2022/06/28 01:20:10;;;;;;;11.55;3.33;;;14.00;99.90;;;;;;5053013;28;20033;-67
2022/06/28 01:22:40;;;;;;;14.05;3.15;;;14.00;99.90;;;;;;5053024;28;20032;-67
2022/06/28 01:25:10;;;;;;;13.82;3.28;;;14.00;99.90;;;;;;5052793;28;20079;-68
2022/06/28 01:27:36;;;;;;;15.18;3.33;;;14.00;99.90;;;;;;5051801;28;20024;-68
2022/06/28 01:30:04;;;;;;;12.75;3.03;;;14.00;99.90;;;;;;5052963;28;20017;-69
2022/06/28 01:32:30;;;;;;;12.55;2.40;;;14.00;99.90;;;;;;5052527;28;20067;-68
2022/06/28 01:34:56;;;;;;;14.65;3.00;;;14.10;99.90;;;;;;5051328;28;20021;-67
2022/06/28 01:37:22;;;;;;;10.43;2.70;;;14.00;99.90;;;;;;5052179;28;20021;-68
2022/06/28 01:39:48;;;;;;;9.55;2.50;;;14.00;99.90;;;;;;5052144;28;20083;-67
2022/06/28 01:42:13;;;;;;;14.07;2.50;;;14.00;99.90;;;;;;5052533;28;20430;-67
2022/06/28 01:44:42;;;;;;;12.25;2.78;;;13.90;99.90;;;;;;5052777;28;20131;-68
2022/06/28 01:47:10;;;;;;;11.35;2.75;;;13.90;99.90;;;;;;5052833;28;20017;-67
2022/06/28 01:49:36;;;;;;;9.55;3.05;;;13.90;99.90;;;;;;5052005;28;20374;-68
2022/06/28 01:52:01;;;;;;;13.43;3.53;;;13.90;99.90;;;;;;5052455;28;20043;-67
2022/06/28 01:54:27;;;;;;;14.48;3.63;;;13.90;99.90;;;;;;5052384;28;20025;-66
2022/06/28 01:56:52;;;;;;;11.50;3.78;;;13.80;99.90;;;;;;5052520;28;20075;-69
2022/06/28 01:59:18;;;;;;;13.70;3.40;;;13.90;99.90;;;;;;5052370;28;20439;-67
2022/06/28 02:01:43;;;;;;;11.65;3.28;;;13.80;99.90;;;;;;5052620;28;20025;-67
2022/06/28 02:04:27;;;;;;;13.70;3.40;;;13.80;99.90;;;;;;5052575;28;20025;-70
2022/06/28 02:06:53;;;;;;;11.13;2.92;;;13.80;99.90;;;;;;5052159;28;20128;-66
2022/06/28 02:09:19;;;;;;;11.48;2.53;;;13.80;99.90;;;;;;5052381;28;20016;-66
2022/06/28 02:11:45;;;;;;;13.50;2.70;;;13.80;99.90;;;;;;5051328;28;20159;-67
2022/06/28 02:14:11;;;;;;;13.00;2.65;;;13.80;99.90;;;;;;5052072;28;20044;-68
2022/06/28 02:16:37;;;;;;;10.93;2.97;;;13.80;99.90;;;;;;5052593;28;20451;-68
2022/06/28 02:19:03;;;;;;;8.60;2.03;;;13.80;99.90;;;;;;5052276;28;20025;-68
2022/06/28 02:21:33;;;;;;;13.23;3.17;;;13.70;99.90;;;;;;5052425;28;20035;-67
2022/06/28 02:23:59;;;;;;;12.90;2.67;;;13.70;99.90;;;;;;5052107;28;20023;-68
2022/06/28 02:26:24;;;;;;;12.60;3.00;;;13.70;99.90;;;;;;5052194;28;20361;-69
2022/06/28 02:28:50;;;;;;;16.75;3.20;;;13.70;99.90;;;;;;5051934;28;20029;-69
2022/06/28 02:31:15;;;;;;;9.10;2.10;;;13.70;99.90;;;;;;5051800;28;20025;-69
2022/06/28 02:33:42;;;;;;;15.98;2.63;;;13.70;99.90;;;;;;5051681;28;20028;-67
2022/06/28 02:41:37;;;;;;;11.57;3.03;;;13.70;99.90;;;;;;5052004;28;20078;-70
2022/06/28 02:44:03;;;;;;;10.48;3.05;;;13.70;99.90;;;;;;5052229;28;20025;-69
2022/06/28 02:46:29;;;;;;;16.58;2.97;;;13.70;99.90;;;;;;5052124;28;20040;-68
2022/06/28 02:48:54;;;;;;;27.80;3.45;;;13.70;99.90;;;;;;5055311;28;20362;-67
2022/06/28 02:51:20;;;;;;;12.68;2.70;;;13.70;99.90;;;;;;5055521;28;20348;-68
2022/06/28 02:53:47;;;;;;;11.55;2.58;;;13.70;99.90;;;;;;5054510;28;20354;-68
2022/06/28 02:56:13;;;;;;;18.73;3.10;;;13.60;99.90;;;;;;5055721;28;20039;-67
2022/06/28 02:58:38;;;;;;;15.10;2.55;;;13.60;99.90;;;;;;5055741;28;20029;-67
2022/06/28 03:01:04;;;;;;;14.65;3.08;;;13.60;99.90;;;;;;5055351;28;20112;-68
2022/06/28 03:03:29;;;;;;;14.10;4.05;;;13.60;99.90;;;;;;5055200;28;20118;-67
2022/06/28 03:05:55;;;;;;;14.13;2.50;;;13.60;99.90;;;;;;5055148;28;20071;-67
2022/06/28 03:08:20;;;;;;;17.35;2.65;;;13.60;99.90;;;;;;5055622;28;20032;-69
2022/06/28 03:10:46;;;;;;;14.07;3.38;;;13.60;99.90;;;;;;5055788;28;20447;-67
2022/06/28 03:13:12;;;;;;;16.17;2.50;;;13.50;99.90;;;;;;5054083;28;20094;-67
2022/06/28 03:15:38;;;;;;;14.02;2.70;;;13.50;99.90;;;;;;5055129;28;20021;-67
2022/06/28 03:18:03;;;;;;;12.05;4.18;;;13.50;99.90;;;;;;5055383;28;20023;-69
2022/06/28 03:20:29;;;;;;;18.88;4.20;;;13.50;99.90;;;;;;5054791;28;20095;-68
2022/06/28 03:22:56;;;;;;;17.15;4.65;;;13.50;99.90;;;;;;5055261;28;20083;-67
2022/06/28 03:25:21;;;;;;;14.13;4.55;;;13.50;99.90;;;;;;5055306;28;20025;-67
2022/06/28 03:27:47;;;;;;;16.33;4.47;;;13.50;99.90;;;;;;5053760;28;20025;-68
2022/06/28 03:30:14;;;;;;;18.02;3.65;;;13.50;99.90;;;;;;5054995;28;20029;-67
2022/06/28 03:32:40;;;;;;;14.45;3.22;;;13.50;99.90;;;;;;5055066;28;20124;-68
2022/06/28 03:35:07;;;;;;;10.50;3.10;;;13.40;99.90;;;;;;5054598;28;20021;-68
2022/06/28 03:37:33;;;;;;;21.73;6.55;;;13.40;99.90;;;;;;5054874;28;20059;-69
2022/06/28 03:39:58;;;;;;;17.13;4.82;;;13.40;99.90;;;;;;5054539;28;20068;-68
2022/06/28 03:42:24;;;;;;;19.02;5.35;;;13.50;99.90;;;;;;5054578;28;20032;-69
2022/06/28 03:44:50;;;;;;;21.80;4.50;;;13.50;99.90;;;;;;5054837;28;20025;-67
2022/06/28 03:47:16;;;;;;;13.05;3.40;;;13.50;99.90;;;;;;5054966;28;20459;-68
2022/06/28 03:49:41;;;;;;;11.85;2.97;;;13.50;99.90;;;;;;5054552;28;20112;-68
2022/06/28 03:52:07;;;;;;;14.98;3.22;;;13.50;99.90;;;;;;5054408;28;20032;-68
2022/06/28 03:54:33;;;;;;;13.75;2.80;;;13.60;99.90;;;;;;5053200;28;20032;-68
2022/06/28 03:56:59;;;;;;;13.27;3.85;;;13.60;99.90;;;;;;5054210;28;20032;-69
2022/06/28 03:59:24;;;;;;;13.50;2.58;;;13.60;99.90;;;;;;5052278;28;20044;-69
2022/06/28 04:01:50;;;;;;;19.08;4.13;;;13.60;99.90;;;;;;5054568;28;20036;-68
2022/06/28 04:04:16;;;;;;;15.73;2.70;;;13.70;99.90;;;;;;5054347;28;20439;-67
2022/06/28 04:06:41;;;;;;;14.57;2.50;;;13.70;99.90;;;;;;5053003;28;20074;-68
2022/06/28 04:09:07;;;;;;;15.55;2.90;;;13.70;99.90;;;;;;5053978;28;20045;-69
2022/06/28 04:11:32;;;;;;;13.32;2.58;;;13.70;99.90;;;;;;5054276;28;20035;-68
2022/06/28 04:13:58;;;;;;;12.93;3.13;;;13.70;99.90;;;;;;5054519;28;20083;-68
2022/06/28 04:16:24;;;;;;;15.52;2.50;;;13.70;99.90;;;;;;5054177;28;20024;-68
2022/06/28 04:18:50;;;;;;;15.95;2.83;;;13.70;99.90;;;;;;5054336;28;20110;-70
2022/06/28 04:21:17;;;;;;;15.48;2.60;;;13.80;99.90;;;;;;5054289;28;20029;-68
2022/06/28 04:23:43;;;;;;;14.77;2.75;;;13.80;99.90;;;;;;5053878;28;20085;-68
2022/06/28 04:26:09;;;;;;;12.35;2.90;;;13.90;99.90;;;;;;5053961;28;20028;-67
2022/06/28 04:28:35;;;;;;;12.50;2.47;;;13.90;99.90;;;;;;5053851;28;20021;-68
2022/06/28 04:31:01;;;;;;;13.52;2.67;;;13.90;99.90;;;;;;5053937;28;20025;-68
2022/06/28 04:33:27;;;;;;;9.63;2.20;;;13.90;99.90;;;;;;5053714;28;20045;-68
2022/06/28 04:35:53;;;;;;;16.73;3.92;;;14.00;99.90;;;;;;5054012;28;20029;-68
2022/06/28 04:38:18;;;;;;;14.80;2.97;;;14.10;99.90;;;;;;5052363;28;20048;-69
2022/06/28 04:40:44;;;;;;;15.93;3.45;;;14.20;99.90;;;;;;5053788;28;20051;-71
2022/06/28 04:43:10;;;;;;;15.30;3.42;;;14.20;99.90;;;;;;5053188;28;20021;-68
2022/06/28 04:45:35;;;;;;;12.48;3.20;;;14.20;99.90;;;;;;5053767;28;20358;-68
2022/06/28 04:48:01;;;;;;;12.10;2.85;;;14.30;99.90;;;;;;5053664;28;20090;-68
2022/06/28 04:50:27;;;;;;;13.50;2.90;;;14.30;99.90;;;;;;5053484;28;20021;-67
2022/06/28 04:52:53;;;;;;;13.63;3.25;;;14.40;99.90;;;;;;5053423;28;20048;-68
2022/06/28 04:55:19;;;;;;;12.10;3.13;;;14.50;99.90;;;;;;5052199;28;20021;-67
2022/06/28 04:57:45;;;;;;;8.48;2.78;;;14.60;99.90;;;;;;5053180;28;20467;-70
2022/06/28 05:00:11;;;;;;;10.65;2.35;;;14.60;99.90;;;;;;5053051;28;20041;-68
2022/06/28 05:02:38;;;;;;;12.25;2.83;;;14.70;99.90;;;;;;5053502;28;20036;-68
2022/06/28 05:05:09;;;;;;;16.55;3.13;;;14.80;99.90;;;;;;5053378;28;20090;-68
2022/06/28 05:07:35;;;;;;;10.10;2.95;;;14.90;99.90;;;;;;5053278;28;20036;-67
2022/06/28 05:10:02;;;;;;;8.70;2.72;;;15.00;99.90;;;;;;5053467;28;20067;-69
2022/06/28 05:12:27;;;;;;;11.88;2.28;;;15.10;99.90;;;;;;5053319;28;20017;-66
2022/06/28 05:14:53;;;;;;;12.18;3.33;;;15.20;99.90;;;;;;5052010;28;20024;-69
2022/06/28 05:17:19;;;;;;;9.05;2.35;;;15.30;99.90;;;;;;5053369;28;20025;-67
2022/06/28 05:19:45;;;;;;;18.40;4.03;;;15.40;99.90;;;;;;5053339;28;20347;-69
2022/06/28 05:22:11;;;;;;;12.75;3.20;;;15.50;99.90;;;;;;5052964;28;20497;-66
2022/06/28 05:24:37;;;;;;;11.85;2.20;;;15.70;99.90;;;;;;5053173;28;20024;-68
2022/06/28 05:27:03;;;;;;;10.45;2.47;;;15.90;99.90;;;;;;5052869;28;20032;-67
2022/06/28 05:29:29;;;;;;;9.60;2.33;;;16.10;99.90;;;;;;5053125;28;20021;-68
2022/06/28 05:31:55;;;;;;;17.92;3.97;;;16.50;99.90;;;;;;5052980;28;20048;-67
2022/06/28 05:34:22;;;;;;;13.73;2.30;;;17.00;99.90;;;;;;5053194;28;20036;-67
2022/06/28 05:36:47;;;;;;;11.20;3.22;;;17.70;99.90;;;;;;5051646;28;20021;-70
2022/06/28 05:39:13;;;;;;;10.00;2.50;;;18.40;99.90;;;;;;5052712;28;20427;-68
2022/06/28 05:41:41;;;;;;;10.95;2.30;;;19.10;99.90;;;;;;5053013;28;20140;-67
2022/06/28 05:44:07;;;;;;;10.65;2.17;;;19.60;99.90;;;;;;5052749;28;20020;-67
2022/06/28 05:46:33;;;;;;;6.85;1.58;;;20.20;99.90;;;;;;5051611;28;20028;-66
2022/06/28 05:48:59;;;;;;;10.60;2.63;;;20.60;99.90;;;;;;5053373;28;20459;-68
2022/06/28 05:51:25;;;;;;;11.75;1.85;;;20.90;99.90;;;;;;5051631;28;20067;-67
2022/06/28 05:53:50;;;;;;;13.32;1.90;;;21.30;99.90;;;;;;5052496;28;20040;-68
2022/06/28 05:56:16;;;;;;;11.00;2.65;;;21.80;99.90;;;;;;5052963;28;20355;-68
2022/06/28 05:58:42;;;;;;;13.73;3.17;;;22.20;99.90;;;;;;5052479;28;20036;-66
2022/06/28 06:01:07;;;;;;;7.15;1.83;;;22.60;99.90;;;;;;5052765;28;20170;-69
2022/06/28 06:03:33;;;;;;;9.50;2.03;;;22.90;99.90;;;;;;5052455;28;20017;-68
2022/06/28 06:05:59;;;;;;;10.35;1.90;;;23.00;99.90;;;;;;5052817;28;20017;-66
2022/06/28 06:08:25;;;;;;;10.93;2.22;;;23.10;99.90;;;;;;5051932;28;20394;-67
2022/06/28 06:10:50;;;;;;;10.88;2.15;;;23.20;99.90;;;;;;5052681;28;20036;-67
2022/06/28 06:13:16;;;;;;;18.30;3.03;;;23.30;99.90;;;;;;5052846;28;20481;-66
2022/06/28 06:15:42;;;;;;;16.15;3.17;;;23.40;99.90;;;;;;5052656;28;20021;-66
2022/06/28 06:18:08;;;;;;;16.83;3.95;;;23.80;99.90;;;;;;5052619;28;20024;-67
2022/06/28 06:20:33;;;;;;;10.25;2.70;;;24.20;99.90;;;;;;5052495;28;20377;-67
2022/06/28 06:22:59;;;;;;;12.18;2.50;;;24.50;99.80;;;;;;5054704;28;20025;-68
2022/06/28 06:25:25;;;;;;;13.80;2.40;;;24.70;99.10;;;;;;5055022;28;20053;-67
2022/06/28 06:27:53;;;;;;;16.98;4.07;;;24.80;98.70;;;;;;5056111;28;20025;-68
2022/06/28 06:30:19;;;;;;;6.88;1.83;;;24.80;98.80;;;;;;5056099;28;20021;-67
2022/06/28 06:32:45;;;;;;;13.57;2.70;;;25.10;98.30;;;;;;5056087;28;20049;-68
2022/06/28 06:35:10;;;;;;;14.65;4.28;;;25.30;98.30;;;;;;5055027;28;20116;-68
2022/06/28 06:37:36;;;;;;;14.52;2.65;;;26.00;97.80;;;;;;5056179;28;20067;-69
2022/06/28 06:40:03;;;;;;;8.70;2.40;;;26.50;96.90;;;;;;5055926;28;20041;-69
2022/06/28 06:42:28;;;;;;;15.70;3.83;;;26.90;95.60;;;;;;5056451;28;20025;-67
2022/06/28 06:44:54;;;;;;;11.30;2.75;;;26.90;95.60;;;;;;5056477;28;20108;-68
2022/06/28 06:47:20;;;;;;;15.98;4.43;;;27.10;95.20;;;;;;5056661;28;20020;-67
2022/06/28 06:49:46;;;;;;;19.95;6.10;;;27.30;95.10;;;;;;5056524;28;20020;-69
2022/06/28 06:52:11;;;;;;;14.90;4.18;;;27.60;94.60;;;;;;5055650;28;20025;-67
2022/06/28 06:54:37;;;;;;;15.13;3.40;;;27.90;93.80;;;;;;5055860;28;20386;-67
2022/06/28 06:57:03;;;;;;;16.15;3.58;;;28.20;93.50;;;;;;5056057;28;20044;-67
2022/06/28 06:59:28;;;;;;;17.05;3.13;;;28.70;93.50;;;;;;5055671;28;20033;-67
2022/06/28 07:01:54;;;;;;;12.32;2.05;;;29.30;92.50;;;;;;5055689;28;20025;-67
2022/06/28 07:04:20;;;;;;;11.50;2.78;;;29.60;91.40;;;;;;5055822;28;20128;-67
2022/06/28 07:06:45;;;;;;;12.88;2.90;;;29.90;91.10;;;;;;5054583;28;20048;-68
2022/06/28 07:09:11;;;;;;;12.68;2.58;;;29.80;90.20;;;;;;5056098;28;20565;-68
2022/06/28 07:11:37;;;;;;;14.10;2.92;;;29.80;90.10;;;;;;5056129;28;20025;-68
2022/06/28 07:14:03;;;;;;;12.38;2.50;;;30.20;89.70;;;;;;5056163;28;20064;-67
2022/06/28 07:16:28;;;;;;;9.10;3.03;;;30.70;89.00;;;;;;5055746;28;20067;-67
2022/06/28 07:18:54;;;;;;;13.57;3.00;;;31.20;86.00;;;;;;5055477;28;20020;-69
2022/06/28 07:21:20;;;;;;;7.72;2.55;;;31.30;85.20;;;;;;5055382;28;20021;-69
2022/06/28 07:23:45;;;;;;;15.07;4.80;;;31.30;83.50;;;;;;5055637;28;20095;-67
2022/06/28 07:26:12;;;;;;;16.77;4.72;;;31.20;83.20;;;;;;5055533;28;20393;-69
2022/06/28 07:28:37;;;;;;;9.40;2.65;;;30.80;84.30;;;;;;5055247;28;20016;-66
2022/06/28 07:31:03;;;;;;;8.55;2.20;;;30.40;84.80;;;;;;5055419;28;20088;-67
2022/06/28 07:33:29;;;;;;;9.75;2.83;;;30.60;83.50;;;;;;5054509;28;20083;-67
2022/06/28 07:35:54;;;;;;;14.23;4.07;;;30.50;83.70;;;;;;5053527;28;20024;-68
2022/06/28 07:38:20;;;;;;;14.00;3.40;;;30.60;83.90;;;;;;5055252;28;20082;-67
2022/06/28 07:40:45;;;;;;;23.73;7.55;;;31.00;82.90;;;;;;5055178;28;20044;-68
2022/06/28 07:43:11;;;;;;;9.88;2.40;;;31.60;82.40;;;;;;5053883;28;20056;-68
2022/06/28 07:45:39;;;;;;;12.02;4.35;;;32.00;79.40;;;;;;5052251;28;20017;-67
2022/06/28 07:48:06;;;;;;;11.25;1.60;;;32.10;80.50;;;;;;5052827;28;20019;-67
2022/06/28 07:53:16;;;;;;;9.07;2.92;;;31.90;77.40;;;;;;5055313;28;20031;-69
2022/06/28 07:55:42;;;;;;;13.10;2.03;;;31.50;77.80;;;;;;5055051;28;20017;-68
2022/06/28 07:58:07;;;;;;;13.40;2.85;;;31.20;76.60;;;;;;5054057;28;20017;-68
2022/06/28 08:00:33;;;;;;;15.40;3.38;;;30.70;80.90;;;;;;5054787;28;20032;-67
2022/06/28 08:02:59;;;;;;;15.02;4.28;;;30.60;79.80;;;;;;5054791;28;20071;-67
2022/06/28 08:05:25;;;;;;;12.82;3.17;;;30.60;79.70;;;;;;5054702;28;20017;-68
2022/06/28 08:07:50;;;;;;;15.63;4.38;;;30.30;81.10;;;;;;5054951;28;20028;-68
2022/06/28 08:10:16;;;;;;;16.40;4.20;;;30.00;80.00;;;;;;5054935;28;20021;-67
2022/06/28 08:12:43;;;;;;;11.43;3.35;;;29.30;81.20;;;;;;5054582;28;20439;-67
2022/06/28 08:15:09;;;;;;;10.85;2.70;;;28.80;82.70;;;;;;5054803;28;20013;-67
2022/06/28 08:17:35;;;;;;;7.15;1.88;;;28.80;82.50;;;;;;5053077;28;20043;-67
2022/06/28 08:20:01;;;;;;;14.93;3.55;;;28.90;80.00;;;;;;5053711;28;20454;-67
2022/06/28 08:22:27;;;;;;;13.30;3.65;;;29.10;84.20;;;;;;5054453;28;20434;-67
2022/06/28 08:24:53;;;;;;;12.95;2.90;;;29.90;84.30;;;;;;5054239;28;20029;-67
2022/06/28 08:27:19;;;;;;;8.80;1.77;;;30.90;79.80;;;;;;5053925;28;20078;-67
2022/06/28 08:29:45;;;;;;;8.25;2.33;;;31.70;72.50;;;;;;5054447;28;20470;-67
2022/06/28 08:32:11;;;;;;;13.55;3.65;;;31.80;75.10;;;;;;5054001;28;20130;-67
2022/06/28 08:34:38;;;;;;;14.43;3.40;;;31.90;75.80;;;;;;5054167;28;20036;-67
2022/06/28 08:37:05;;;;;;;11.50;3.40;;;32.00;75.20;;;;;;5054025;28;20024;-67
2022/06/28 08:39:31;;;;;;;10.45;2.90;;;31.90;75.90;;;;;;5054084;28;20029;-66
2022/06/28 08:42:01;;;;;;;10.45;2.58;;;32.60;75.60;;;;;;5053979;28;20466;-65
2022/06/28 08:44:30;;;;;;;11.40;2.28;;;32.80;74.80;;;;;;5051998;28;20021;-66
2022/06/28 08:46:56;;;;;;;15.00;2.90;;;32.40;75.50;;;;;;5053505;28;20052;-67
2022/06/28 08:49:44;;;;;;;18.60;4.80;;;31.30;76.80;;;;;;5054042;28;20459;-67
2022/06/28 08:52:09;;;;;;;14.82;4.07;;;30.40;78.70;;;;;;5053785;28;20096;-67
2022/06/28 08:54:35;;;;;;;9.73;2.03;;;29.50;78.40;;;;;;5054171;28;20111;-68
2022/06/28 08:57:04;;;;;;;12.15;2.47;;;28.90;78.30;;;;;;5053923;28;20112;-67
2022/06/28 08:59:30;;;;;;;9.55;2.58;;;28.60;79.80;;;;;;5053231;28;20033;-69
2022/06/28 09:01:56;;;;;;;11.80;2.15;;;29.20;79.80;;;;;;5053803;28;20107;-68
2022/06/28 09:04:21;;;;;;;13.90;2.88;;;29.60;79.60;;;;;;5053042;28;20025;-69
2022/06/28 09:06:47;;;;;;;7.75;1.67;;;29.90;80.00;;;;;;5053559;28;20017;-68
2022/06/28 09:09:13;;;;;;;18.60;5.78;;;30.40;75.80;;;;;;5052289;28;20443;-69
2022/06/28 09:11:41;;;;;;;11.05;3.15;;;31.20;76.90;;;;;;5053293;28;20098;-68
2022/06/28 09:14:29;;;;;;;11.80;3.08;;;32.30;73.20;;;;;;5053361;28;20052;-67
2022/06/28 09:16:56;;;;;;;10.50;3.10;;;33.80;73.10;;;;;;5053474;28;20024;-68
2022/06/28 09:19:39;;;;;;;14.20;3.53;;;34.50;69.30;;;;;;5053466;28;20091;-67
2022/06/28 09:22:05;;;;;;;13.45;2.45;;;34.80;70.30;;;;;;5051550;28;20029;-67
2022/06/28 09:24:32;;;;;;;13.13;3.03;;;35.60;69.60;;;;;;5053469;28;20806;-68
2022/06/28 09:27:04;;;;;;;11.93;2.55;;;35.30;69.90;;;;;;5052865;28;20029;-69
2022/06/28 09:29:48;;;;;;;11.13;2.40;;;35.10;69.80;;;;;;5052873;28;20107;-68
2022/06/28 09:32:14;;;;;;;11.80;2.45;;;35.80;69.10;;;;;;5053233;28;20052;-68
2022/06/28 09:34:41;;;;;;;10.23;2.67;;;36.60;68.20;;;;;;5053221;28;20024;-67
2022/06/28 09:37:07;;;;;;;11.98;2.28;;;37.10;67.60;;;;;;5053250;28;20107;-68
2022/06/28 09:39:33;;;;;;;8.95;2.58;;;36.50;65.90;;;;;;5053031;28;20119;-67
2022/06/28 09:42:01;;;;;;;12.40;2.42;;;35.40;66.60;;;;;;5053057;28;20167;-68
2022/06/28 09:44:28;;;;;;;11.60;2.15;;;34.40;67.50;;;;;;5053362;28;20104;-67
2022/06/28 09:46:57;;;;;;;11.75;2.75;;;33.40;69.30;;;;;;5053020;28;20025;-67
2022/06/28 09:49:28;;;;;;;9.57;1.77;;;33.10;70.70;;;;;;5053051;28;20025;-67
2022/06/28 09:51:56;;;;;;;17.30;2.92;;;32.40;70.90;;;;;;5052993;28;20066;-67
2022/06/28 09:54:25;;;;;;;9.05;2.10;;;31.50;72.40;;;;;;5053001;28;20117;-68
2022/06/28 09:56:54;;;;;;;17.40;2.65;;;30.90;73.30;;;;;;5052253;28;20156;-68
2022/06/28 09:59:21;;;;;;;10.15;2.03;;;30.30;74.00;;;;;;5053016;28;20029;-68
2022/06/28 10:01:48;;;;;;;11.30;2.50;;;29.70;75.80;;;;;;5052967;28;20029;-67
2022/06/28 10:04:14;;;;;;;7.57;2.35;;;30.10;75.00;;;;;;5052950;28;20017;-68
2022/06/28 10:06:40;;;;;;;14.20;2.47;;;30.50;74.40;;;;;;5052868;28;20029;-68
2022/06/28 10:09:06;;;;;;;13.70;2.20;;;30.80;74.40;;;;;;5052531;28;20055;-67
2022/06/28 10:15:01;;;;;;;12.50;2.20;;;30.60;74.60;;;;;;5052337;28;20036;-67
2022/06/28 10:17:29;;;;;;;14.95;2.20;;;31.20;75.10;;;;;;5053629;28;20048;-67
2022/06/28 10:19:57;;;;;;;10.20;1.98;;;32.70;72.50;;;;;;5072581;28;20069;-67
2022/06/28 10:22:23;;;;;;;11.38;1.95;;;33.70;71.20;;;;;;5061682;28;20398;-67
2022/06/28 10:24:55;;;;;;;12.27;2.45;;;34.30;69.50;;;;;;5052472;28;20516;-67
2022/06/28 10:27:20;;;;;;;9.15;2.05;;;34.30;69.20;;;;;;5052722;28;20021;-67
2022/06/28 10:29:58;;;;;;;9.35;2.05;;;34.60;69.20;;;;;;5052569;28;20363;-68
2022/06/28 10:33:02;;;;;;;13.27;2.78;;;35.40;68.40;;;;;;5032683;28;20124;-67
2022/06/28 10:35:34;;;;;;;15.32;2.72;;;35.70;66.70;;;;;;5001666;28;20029;-67
2022/06/28 10:38:08;;;;;;;13.30;2.88;;;35.60;66.60;;;;;;5032612;28;20021;-68
2022/06/28 10:40:49;;;;;;;8.23;2.25;;;35.70;66.60;;;;;;5032129;28;20425;-67
2022/06/28 10:43:42;;;;;;;10.02;2.50;;;35.40;66.30;;;;;;5032271;28;20049;-69
2022/06/28 10:46:08;;;;;;;9.43;1.67;;;35.60;66.10;;;;;;5024759;28;20037;-67
2022/06/28 10:48:48;;;;;;;9.48;1.98;;;36.30;65.60;;;;;;5060175;28;20454;-67
2022/06/28 10:51:15;;;;;;;13.50;2.20;;;37.20;64.40;;;;;;5072030;28;20028;-67
2022/06/28 10:54:00;;;;;;;13.00;2.10;;;38.00;62.50;;;;;;5072271;28;20040;-67
2022/06/28 10:56:37;;;;;;;8.85;1.83;;;37.70;62.30;;;;;;5072355;28;20389;-66
2022/06/28 10:59:06;;;;;;;8.05;1.98;;;37.70;61.10;;;;;;5072438;28;20090;-65
2022/06/28 11:01:43;;;;;;;8.63;1.95;;;37.40;62.20;;;;;;5072630;28;20028;-69
2022/06/28 11:04:18;;;;;;;11.50;2.38;;;37.40;62.30;;;;;;5071901;28;20023;-69
2022/06/28 11:06:52;;;;;;;11.57;2.08;;;37.70;61.80;;;;;;5072148;28;20099;-66
2022/06/28 11:09:36;;;;;;;11.38;2.15;;;37.90;60.40;;;;;;5074786;28;20063;-65
2022/06/28 11:12:08;;;;;;;8.70;1.90;;;38.00;60.60;;;;;;5075801;28;20429;-65
2022/06/28 11:14:44;;;;;;;12.63;2.10;;;37.90;59.40;;;;;;5075428;28;20016;-67
2022/06/28 11:17:22;;;;;;;9.13;2.40;;;37.80;59.10;;;;;;5059059;28;20027;-65
2022/06/28 11:19:56;;;;;;;10.43;1.98;;;38.20;59.70;;;;;;5055555;28;20037;-65
2022/06/28 11:22:29;;;;;;;14.45;3.15;;;37.90;58.70;;;;;;5055393;28;20036;-65
2022/06/28 11:24:57;;;;;;;7.90;2.10;;;37.70;59.30;;;;;;5055385;28;20021;-68
2022/06/28 11:27:24;;;;;;;8.20;2.35;;;37.70;59.30;;;;;;5055458;28;20362;-65
2022/06/28 11:30:01;;;;;;;9.00;2.00;;;38.00;58.70;;;;;;5055417;28;20021;-65
2022/06/28 11:32:33;;;;;;;7.63;2.00;;;38.70;58.30;;;;;;5053893;28;20037;-66
2022/06/28 11:35:18;;;;;;;11.13;2.33;;;38.90;57.20;;;;;;5055490;28;20021;-65
2022/06/28 11:37:53;;;;;;;9.73;2.15;;;38.90;57.30;;;;;;5053717;28;20448;-65
2022/06/28 11:40:21;;;;;;;8.85;1.73;;;38.50;56.60;;;;;;5054817;28;20440;-65
2022/06/28 11:42:59;;;;;;;10.20;2.17;;;37.90;57.70;;;;;;5055259;28;20049;-66
2022/06/28 11:45:30;;;;;;;7.85;2.10;;;38.20;57.50;;;;;;5054958;28;20469;-69
2022/06/28 11:47:56;;;;;;;7.65;1.83;;;37.90;56.30;;;;;;5054562;28;20024;-67
2022/06/28 11:50:22;;;;;;;10.48;2.13;;;37.80;57.50;;;;;;5055015;28;20033;-69
2022/06/28 11:52:50;;;;;;;11.13;2.55;;;38.40;57.80;;;;;;5054773;28;20100;-67
2022/06/28 11:55:17;;;;;;;12.90;2.75;;;38.40;56.90;;;;;;5054989;28;20024;-65
2022/06/28 11:57:44;;;;;;;12.43;2.10;;;38.70;56.60;;;;;;5055046;28;20020;-66
2022/06/28 12:00:13;;;;;;;12.98;2.20;;;38.90;56.30;;;;;;5054902;28;20025;-68
2022/06/28 12:02:51;;;;;;;10.18;2.10;;;39.10;56.00;;;;;;5054517;28;20056;-64
2022/06/28 12:05:34;;;;;;;10.90;2.45;;;39.40;55.60;;;;;;5054944;28;20052;-65
2022/06/28 12:08:02;;;;;;;8.50;2.40;;;39.40;55.30;;;;;;5054902;28;20024;-64
2022/06/28 12:10:30;;;;;;;6.47;1.80;;;39.20;55.30;;;;;;5073416;28;20060;-64
2022/06/28 12:12:58;;;;;;;9.85;2.00;;;39.00;54.50;;;;;;5074295;28;20017;-65
2022/06/28 12:15:31;;;;;;;11.20;2.35;;;38.50;55.10;;;;;;5074291;28;20425;-64
2022/06/28 12:18:15;;;;;;;9.40;1.92;;;38.60;54.80;;;;;;5074275;28;20021;-64
2022/06/28 12:20:55;;;;;;;10.80;2.28;;;39.00;54.90;;;;;;5074044;28;20035;-64
2022/06/28 12:23:20;;;;;;;9.35;1.83;;;39.20;54.10;;;;;;5074587;28;20027;-65
2022/06/28 12:25:46;;;;;;;10.52;1.88;;;39.40;53.80;;;;;;5074344;28;20033;-63
2022/06/28 12:28:11;;;;;;;9.38;2.35;;;39.60;53.40;;;;;;5074263;28;20100;-66
2022/06/28 12:30:37;;;;;;;7.05;1.55;;;39.80;52.70;;;;;;5074274;28;20114;-63
2022/06/28 12:33:03;;;;;;;8.50;1.88;;;39.50;52.50;;;;;;5074168;28;20058;-64
2022/06/28 12:35:28;;;;;;;7.88;1.90;;;39.30;52.30;;;;;;5072000;28;20032;-63
2022/06/28 12:37:55;;;;;;;8.77;1.92;;;39.10;52.30;;;;;;5072741;28;20025;-66
2022/06/28 12:40:21;;;;;;;7.20;2.00;;;38.60;52.10;;;;;;5074044;28;20039;-65
2022/06/28 12:42:47;;;;;;;9.73;2.08;;;38.20;52.50;;;;;;5074168;28;20016;-64
2022/06/28 12:45:12;;;;;;;9.27;1.73;;;37.80;52.90;;;;;;5073961;28;20023;-64
2022/06/28 12:47:40;;;;;;;6.22;1.58;;;37.50;52.30;;;;;;5074119;28;20101;-64
2022/06/28 12:50:10;;;;;;;10.02;1.95;;;36.80;53.20;;;;;;5073632;28;20033;-64
2022/06/28 12:52:36;;;;;;;10.60;1.90;;;36.10;54.10;;;;;;5073894;28;20028;-67